Time;durP1;ratioP1;P1;durP2;ratioP2;P2;SDS_P1;SDS_P2;PMS_P1;PMS_P2;Temp;Humidity;BMP_temperature;BMP_pressure;BME280_temperature;BME280_humidity;BME280_pressure;Samples;Min_cycle;Max_cycle;Signal;HPM_P1;HPM_P2
2023/10/01 00:01:17;;;;;;;6.63;3.10;;;16.10;99.90;;;;;;5037433;28;20918;-68
2023/10/01 00:03:43;;;;;;;4.33;2.63;;;16.10;99.90;;;;;;5037497;28;20202;-68
2023/10/01 00:06:08;;;;;;;4.67;3.30;;;16.10;99.90;;;;;;5038268;28;20191;-67
2023/10/01 00:08:34;;;;;;;7.53;2.87;;;16.00;99.90;;;;;;5032983;28;20268;-67
2023/10/01 00:11:00;;;;;;;6.27;3.03;;;15.90;99.90;;;;;;5036965;28;20203;-67
2023/10/01 00:13:26;;;;;;;5.63;2.50;;;15.80;99.90;;;;;;5033456;28;20206;-68
2023/10/01 00:15:52;;;;;;;5.67;3.27;;;15.80;99.90;;;;;;5028974;28;20190;-67
2023/10/01 00:18:17;;;;;;;4.53;2.70;;;15.80;99.90;;;;;;5032849;28;20671;-63
2023/10/01 00:20:43;;;;;;;5.17;3.17;;;15.80;99.90;;;;;;5036902;28;20337;-63
2023/10/01 00:23:09;;;;;;;5.90;3.43;;;15.90;99.90;;;;;;5040688;28;20227;-71
2023/10/01 00:25:35;;;;;;;4.37;2.10;;;15.90;99.90;;;;;;5037148;28;20255;-65
2023/10/01 00:28:03;;;;;;;4.40;3.37;;;15.90;99.90;;;;;;5034817;28;20270;-65
2023/10/01 00:30:32;;;;;;;4.10;2.30;;;15.90;99.90;;;;;;5029390;28;20231;-72
2023/10/01 00:32:59;;;;;;;11.10;2.97;;;15.80;99.90;;;;;;5034382;28;20226;-62
2023/10/01 00:35:27;;;;;;;3.60;2.50;;;15.70;99.90;;;;;;5031906;28;20264;-72
2023/10/01 00:37:53;;;;;;;7.13;2.97;;;15.70;99.90;;;;;;5034722;28;20253;-70
2023/10/01 00:40:18;;;;;;;7.30;3.17;;;15.80;99.90;;;;;;5032974;28;20930;-67
2023/10/01 00:42:45;;;;;;;9.20;3.03;;;15.90;99.90;;;;;;5036675;28;20556;-68
2023/10/01 00:45:14;;;;;;;4.40;2.63;;;15.90;99.90;;;;;;5037861;28;20705;-68
2023/10/01 00:47:42;;;;;;;5.20;2.60;;;15.80;99.90;;;;;;5030765;28;20608;-72
2023/10/01 00:50:21;;;;;;;7.80;3.23;;;15.70;99.90;;;;;;5032683;28;20194;-68
2023/10/01 00:52:47;;;;;;;3.50;2.43;;;15.60;99.90;;;;;;5040666;28;20209;-69
2023/10/01 00:55:13;;;;;;;4.90;3.20;;;15.50;99.90;;;;;;5034347;28;20190;-70
2023/10/01 00:57:39;;;;;;;6.73;2.60;;;15.50;99.90;;;;;;5034377;28;20210;-70
2023/10/01 01:00:13;;;;;;;4.80;2.60;;;15.40;99.90;;;;;;5034475;28;20198;-69
2023/10/01 01:02:46;;;;;;;9.30;3.50;;;15.50;99.90;;;;;;5039915;28;20194;-69
2023/10/01 01:05:20;;;;;;;4.77;2.97;;;15.60;99.90;;;;;;5033254;28;20198;-69
2023/10/01 01:07:47;;;;;;;6.27;3.10;;;15.70;99.90;;;;;;5035679;28;20234;-70
2023/10/01 01:10:16;;;;;;;4.70;2.87;;;15.70;99.90;;;;;;5033530;28;20586;-70
2023/10/01 01:12:45;;;;;;;5.00;3.50;;;15.90;99.90;;;;;;5030695;28;20753;-70
2023/10/01 01:15:13;;;;;;;5.53;3.17;;;15.80;99.90;;;;;;5034772;28;20198;-66
2023/10/01 01:17:41;;;;;;;7.30;3.17;;;15.80;99.90;;;;;;5034447;28;20230;-69
2023/10/01 01:20:09;;;;;;;5.70;2.70;;;15.80;99.90;;;;;;5037664;28;20204;-68
2023/10/01 01:22:37;;;;;;;7.50;3.57;;;15.80;99.90;;;;;;5033207;28;20356;-69
2023/10/01 01:25:10;;;;;;;4.00;3.23;;;15.80;99.90;;;;;;5035535;28;20252;-70
2023/10/01 01:27:40;;;;;;;6.00;3.73;;;15.80;99.90;;;;;;5031932;28;20226;-70
2023/10/01 01:30:17;;;;;;;6.30;3.47;;;15.80;99.90;;;;;;5036064;28;20223;-69
2023/10/01 01:32:42;;;;;;;4.03;3.37;;;15.80;99.90;;;;;;5038351;28;20206;-69
2023/10/01 01:35:10;;;;;;;6.87;4.17;;;15.80;99.90;;;;;;5038418;28;20256;-68
2023/10/01 01:37:47;;;;;;;5.13;3.30;;;15.70;99.90;;;;;;5040732;28;20241;-70
2023/10/01 01:40:24;;;;;;;7.47;3.40;;;15.70;99.90;;;;;;5040927;28;20194;-69
2023/10/01 01:43:04;;;;;;;6.07;3.37;;;15.70;99.90;;;;;;5035788;28;20190;-70
2023/10/01 01:45:33;;;;;;;10.57;3.60;;;15.70;99.90;;;;;;5033302;28;20313;-70
2023/10/01 01:48:00;;;;;;;7.17;3.83;;;15.60;99.90;;;;;;5035896;28;20596;-67
2023/10/01 01:50:31;;;;;;;5.43;3.40;;;15.60;99.90;;;;;;5038522;28;20199;-67
2023/10/01 01:52:57;;;;;;;10.57;4.00;;;15.60;99.90;;;;;;5035560;28;20191;-68
2023/10/01 01:55:26;;;;;;;6.47;3.57;;;15.60;99.90;;;;;;5040307;28;20278;-67
2023/10/01 01:58:15;;;;;;;5.53;3.43;;;15.60;99.90;;;;;;5040342;28;20217;-66
2023/10/01 02:03:33;;;;;;;5.97;3.17;;;15.60;99.90;;;;;;5038486;28;20213;-63
2023/10/01 02:06:04;;;;;;;10.50;3.87;;;15.50;99.90;;;;;;5034465;28;20203;-68
2023/10/01 02:11:19;;;;;;;5.53;3.40;;;15.60;99.90;;;;;;5032673;28;20653;-65
2023/10/01 02:13:50;;;;;;;4.70;3.63;;;15.50;99.90;;;;;;5039010;28;20201;-65
2023/10/01 02:19:11;;;;;;;6.27;3.27;;;15.60;99.90;;;;;;5037433;28;20226;-65
2023/10/01 02:21:44;;;;;;;6.17;3.33;;;15.60;99.90;;;;;;5042503;28;20191;-65
2023/10/01 02:24:14;;;;;;;5.73;3.27;;;15.50;99.90;;;;;;5033365;28;20199;-64
2023/10/01 02:26:46;;;;;;;3.93;3.20;;;15.50;99.90;;;;;;5036329;28;20517;-66
2023/10/01 02:29:16;;;;;;;6.37;3.50;;;15.50;99.90;;;;;;5032577;28;20226;-67
2023/10/01 02:31:55;;;;;;;4.23;3.33;;;15.40;99.90;;;;;;5036885;28;20199;-67
2023/10/01 02:34:21;;;;;;;6.47;3.70;;;15.40;99.90;;;;;;5037266;28;20209;-71
2023/10/01 02:36:47;;;;;;;7.33;3.90;;;15.40;99.90;;;;;;5041824;28;20747;-63
2023/10/01 02:39:21;;;;;;;5.70;3.27;;;15.50;99.90;;;;;;5038944;28;20676;-64
2023/10/01 02:42:09;;;;;;;6.27;3.83;;;15.50;99.90;;;;;;5041648;28;20231;-70
2023/10/01 02:44:39;;;;;;;7.27;3.67;;;15.50;99.90;;;;;;5032025;28;20990;-75
2023/10/01 02:47:17;;;;;;;7.33;3.50;;;15.50;99.90;;;;;;5032852;28;20264;-65
2023/10/01 02:49:49;;;;;;;6.17;3.63;;;15.50;99.90;;;;;;5036302;28;20201;-66
2023/10/01 02:52:36;;;;;;;5.80;3.33;;;15.50;99.90;;;;;;5031457;28;20206;-65
2023/10/01 02:55:06;;;;;;;5.73;3.60;;;15.50;99.90;;;;;;5033474;28;20194;-66
2023/10/01 02:57:33;;;;;;;10.63;3.93;;;15.60;99.90;;;;;;5032400;28;20223;-64
2023/10/01 03:02:51;;;;;;;6.87;4.40;;;15.50;99.90;;;;;;5042236;28;20199;-61
2023/10/01 03:07:52;;;;;;;10.03;5.30;;;15.50;99.90;;;;;;5034195;28;20281;-72
2023/10/01 03:10:25;;;;;;;6.40;4.60;;;15.60;99.90;;;;;;5035143;28;20658;-69
2023/10/01 03:12:58;;;;;;;6.87;4.47;;;15.50;99.90;;;;;;5028536;28;20199;-68
2023/10/01 03:15:27;;;;;;;7.97;4.33;;;15.60;99.90;;;;;;5033290;28;20207;-69
2023/10/01 03:17:57;;;;;;;7.13;4.30;;;15.50;99.90;;;;;;5032266;28;20309;-68
2023/10/01 03:23:10;;;;;;;8.83;4.40;;;15.40;99.90;;;;;;5032764;28;20206;-69
2023/10/01 03:25:41;;;;;;;6.67;3.97;;;15.50;99.90;;;;;;5030146;28;20211;-69
2023/10/01 03:28:11;;;;;;;7.77;3.77;;;15.50;99.90;;;;;;5031177;28;20198;-69
2023/10/01 03:30:40;;;;;;;9.67;4.53;;;15.50;99.90;;;;;;5028609;28;20215;-69
2023/10/01 03:33:07;;;;;;;8.17;4.37;;;15.40;99.90;;;;;;5037518;28;20277;-69
2023/10/01 03:35:34;;;;;;;6.73;4.00;;;15.40;99.90;;;;;;5037556;28;20234;-68
2023/10/01 03:38:10;;;;;;;5.17;3.80;;;15.50;99.90;;;;;;5038692;28;20337;-68
2023/10/01 03:40:58;;;;;;;7.20;4.23;;;15.40;99.90;;;;;;5038242;28;20233;-68
2023/10/01 03:43:36;;;;;;;6.57;3.77;;;15.30;99.90;;;;;;5037305;28;20239;-68
2023/10/01 03:51:28;;;;;;;3.77;3.10;;;15.40;99.90;;;;;;5036274;28;20206;-68
2023/10/01 03:54:06;;;;;;;6.30;3.40;;;15.30;99.90;;;;;;5033505;28;20230;-61
2023/10/01 03:56:36;;;;;;;5.23;3.37;;;15.30;99.90;;;;;;5032997;28;20232;-62
2023/10/01 03:59:02;;;;;;;7.87;3.80;;;15.30;99.90;;;;;;5034722;28;20225;-61
2023/10/01 04:01:33;;;;;;;5.73;3.17;;;15.30;99.90;;;;;;5034887;28;20831;-61
2023/10/01 04:04:00;;;;;;;6.13;3.70;;;15.40;99.90;;;;;;5028982;28;20652;-62
2023/10/01 04:06:27;;;;;;;6.43;4.00;;;15.30;99.90;;;;;;5031968;28;20568;-62
2023/10/01 04:08:55;;;;;;;6.37;3.53;;;15.30;99.90;;;;;;5031162;28;20194;-62
2023/10/01 04:11:49;;;;;;;7.37;3.80;;;15.40;99.90;;;;;;5031562;28;20779;-61
2023/10/01 04:14:17;;;;;;;7.80;3.90;;;15.50;99.90;;;;;;5035440;28;20232;-61
2023/10/01 04:16:46;;;;;;;8.77;3.90;;;15.40;99.90;;;;;;5034910;28;20199;-61
2023/10/01 04:19:13;;;;;;;5.13;3.23;;;15.40;99.90;;;;;;5033352;28;20206;-61
2023/10/01 04:21:43;;;;;;;5.37;3.40;;;15.40;99.90;;;;;;5039334;28;20619;-62
2023/10/01 04:24:09;;;;;;;7.60;3.43;;;15.30;99.90;;;;;;5036806;28;20202;-60
2023/10/01 04:26:35;;;;;;;6.67;3.10;;;15.30;99.90;;;;;;5035893;28;20195;-64
2023/10/01 04:29:01;;;;;;;3.97;3.40;;;15.40;99.90;;;;;;5034671;28;20198;-64
2023/10/01 04:31:42;;;;;;;4.90;3.13;;;15.40;99.90;;;;;;5033934;28;20238;-64
2023/10/01 04:34:11;;;;;;;10.93;3.60;;;15.40;99.90;;;;;;5025749;28;20363;-68
2023/10/01 04:36:38;;;;;;;5.90;3.63;;;15.50;99.90;;;;;;5030248;28;20668;-67
2023/10/01 04:39:04;;;;;;;6.53;3.60;;;15.40;99.90;;;;;;5033960;28;20313;-66
2023/10/01 04:41:31;;;;;;;7.10;3.57;;;15.40;99.90;;;;;;5036445;28;20211;-65
2023/10/01 04:44:06;;;;;;;4.63;3.47;;;15.40;99.90;;;;;;5023515;28;20199;-65
2023/10/01 04:46:40;;;;;;;5.27;3.50;;;15.40;99.90;;;;;;5025289;28;20825;-69
2023/10/01 04:49:08;;;;;;;5.53;3.67;;;15.40;99.90;;;;;;5029031;28;20221;-65
2023/10/01 04:51:45;;;;;;;6.00;3.70;;;15.40;99.90;;;;;;5031839;28;20203;-64
2023/10/01 04:54:17;;;;;;;4.00;3.07;;;15.40;99.90;;;;;;5037683;28;20194;-66
2023/10/01 04:56:45;;;;;;;6.37;4.03;;;15.40;99.90;;;;;;5035844;28;20209;-65
2023/10/01 04:59:10;;;;;;;5.87;3.70;;;15.40;99.90;;;;;;5032452;28;20195;-65
2023/10/01 05:01:36;;;;;;;6.30;3.43;;;15.40;99.90;;;;;;5038977;28;20741;-66
2023/10/01 05:04:01;;;;;;;7.00;3.37;;;15.40;99.90;;;;;;5038817;28;20195;-66
2023/10/01 05:06:29;;;;;;;8.80;3.77;;;15.30;99.90;;;;;;5033411;28;20233;-72
2023/10/01 05:08:56;;;;;;;6.10;3.30;;;15.30;99.90;;;;;;5031024;28;20688;-67
2023/10/01 05:11:22;;;;;;;7.53;4.03;;;15.40;99.90;;;;;;5025609;28;20573;-66
2023/10/01 05:13:51;;;;;;;10.20;4.07;;;15.50;99.90;;;;;;5031628;28;20878;-67
2023/10/01 05:16:18;;;;;;;6.57;4.33;;;15.60;99.90;;;;;;5030442;28;20194;-66
2023/10/01 05:18:45;;;;;;;7.53;3.93;;;15.60;99.90;;;;;;5034437;28;20317;-66
2023/10/01 05:21:18;;;;;;;8.33;3.97;;;15.50;99.90;;;;;;5031938;28;20195;-67
2023/10/01 05:23:45;;;;;;;5.67;3.97;;;15.60;99.90;;;;;;5033672;28;20200;-67
2023/10/01 05:26:11;;;;;;;9.00;4.10;;;15.60;99.90;;;;;;5025734;28;20200;-66
2023/10/01 05:28:41;;;;;;;5.63;3.67;;;15.60;99.90;;;;;;5032497;28;20226;-66
2023/10/01 05:31:15;;;;;;;5.13;3.83;;;15.50;99.90;;;;;;5035311;28;20887;-64
2023/10/01 05:33:45;;;;;;;5.30;3.37;;;15.50;99.90;;;;;;5037623;28;20255;-64
2023/10/01 05:36:13;;;;;;;8.13;4.47;;;15.50;99.90;;;;;;5033350;28;20282;-64
2023/10/01 05:38:40;;;;;;;5.40;3.70;;;15.60;99.90;;;;;;5038753;28;20807;-65
2023/10/01 05:41:09;;;;;;;9.90;4.43;;;15.50;99.90;;;;;;5032169;28;20285;-71
2023/10/01 05:43:43;;;;;;;4.50;3.07;;;15.60;99.90;;;;;;5031503;28;20218;-62
2023/10/01 05:46:08;;;;;;;5.63;3.77;;;15.60;99.90;;;;;;5027945;28;20228;-71
2023/10/01 05:48:39;;;;;;;5.80;4.33;;;15.70;99.90;;;;;;5036594;28;20371;-71
2023/10/01 05:51:19;;;;;;;4.83;3.03;;;15.80;99.90;;;;;;5034442;28;20262;-72
2023/10/01 05:53:46;;;;;;;5.47;2.73;;;15.80;99.90;;;;;;5031263;28;20205;-60
2023/10/01 05:56:15;;;;;;;8.37;3.10;;;15.80;99.90;;;;;;5027813;28;20202;-65
2023/10/01 05:58:41;;;;;;;6.80;3.43;;;15.70;99.90;;;;;;5029680;28;20661;-65
2023/10/01 06:01:16;;;;;;;8.63;3.50;;;15.70;99.90;;;;;;5031113;28;20199;-64
2023/10/01 06:03:42;;;;;;;5.23;3.17;;;15.70;99.90;;;;;;5030290;28;20524;-65
2023/10/01 06:06:24;;;;;;;6.30;3.23;;;15.70;99.90;;;;;;5037713;28;20221;-65
2023/10/01 06:08:50;;;;;;;8.30;3.37;;;15.60;99.90;;;;;;5029813;28;20344;-67
2023/10/01 06:11:17;;;;;;;4.87;2.87;;;15.60;99.90;;;;;;5029457;28;20199;-61
2023/10/01 06:13:54;;;;;;;8.33;3.30;;;15.50;99.90;;;;;;5031421;28;20222;-66
2023/10/01 06:16:25;;;;;;;6.40;3.57;;;15.60;99.90;;;;;;5036128;28;20198;-67
2023/10/01 06:18:56;;;;;;;7.10;3.33;;;15.50;99.90;;;;;;5034760;28;20268;-67
2023/10/01 06:21:27;;;;;;;7.17;2.90;;;15.60;99.90;;;;;;5038287;28;20236;-68
2023/10/01 06:23:54;;;;;;;5.10;3.03;;;15.70;99.90;;;;;;5035355;28;20235;-65
2023/10/01 06:26:33;;;;;;;4.67;3.30;;;15.70;99.90;;;;;;5035051;28;20342;-66
2023/10/01 06:29:02;;;;;;;7.57;3.47;;;15.80;99.90;;;;;;5035758;28;20194;-67
2023/10/01 06:31:28;;;;;;;7.00;3.37;;;15.80;99.90;;;;;;5035201;28;20847;-65
2023/10/01 06:33:53;;;;;;;6.53;3.50;;;15.80;99.90;;;;;;5040143;28;20226;-65
2023/10/01 06:36:21;;;;;;;5.20;3.33;;;15.90;99.90;;;;;;5036633;28;20229;-65
2023/10/01 06:38:48;;;;;;;9.60;3.53;;;15.90;99.90;;;;;;5037055;28;20229;-61
2023/10/01 06:41:25;;;;;;;6.70;2.90;;;15.90;99.90;;;;;;5032011;28;20210;-63
2023/10/01 06:43:54;;;;;;;7.53;2.90;;;15.90;99.90;;;;;;5037323;28;20201;-63
2023/10/01 06:46:30;;;;;;;8.10;3.10;;;15.90;99.90;;;;;;5037971;28;20195;-62
2023/10/01 06:48:58;;;;;;;5.37;2.83;;;15.90;99.90;;;;;;5035163;28;21167;-60
2023/10/01 06:51:25;;;;;;;6.50;3.20;;;15.90;99.90;;;;;;5028356;28;20677;-65
2023/10/01 06:54:05;;;;;;;5.73;3.17;;;15.90;99.90;;;;;;5040335;28;20664;-64
2023/10/01 06:56:33;;;;;;;5.40;3.10;;;16.00;99.90;;;;;;5035080;28;20203;-64
2023/10/01 07:01:35;;;;;;;5.70;3.03;;;16.00;99.90;;;;;;5034361;28;20219;-66
2023/10/01 07:04:05;;;;;;;6.40;3.10;;;16.00;99.90;;;;;;5038858;28;20190;-69
2023/10/01 07:06:34;;;;;;;5.03;2.83;;;16.00;99.90;;;;;;5038930;28;20200;-66
2023/10/01 07:08:59;;;;;;;4.20;2.67;;;16.10;99.90;;;;;;5036276;28;21240;-77
2023/10/01 07:11:28;;;;;;;5.87;3.23;;;16.20;99.90;;;;;;5041340;28;20278;-74
2023/10/01 07:13:55;;;;;;;5.83;3.33;;;16.20;99.90;;;;;;5036522;28;20193;-73
2023/10/01 07:16:39;;;;;;;5.93;3.47;;;16.20;99.90;;;;;;5035637;28;20330;-72
2023/10/01 07:19:11;;;;;;;7.83;2.90;;;16.10;99.90;;;;;;5034635;28;20681;-68
2023/10/01 07:21:39;;;;;;;9.17;3.57;;;16.30;99.90;;;;;;5038531;28;20203;-64
2023/10/01 07:24:10;;;;;;;6.93;2.70;;;16.30;99.90;;;;;;5035276;28;20628;-65
2023/10/01 07:26:40;;;;;;;7.20;3.30;;;16.30;99.90;;;;;;5035117;28;20209;-64
2023/10/01 07:29:06;;;;;;;6.17;2.93;;;16.40;99.90;;;;;;5036204;28;20957;-65
2023/10/01 07:31:35;;;;;;;4.00;3.37;;;16.50;99.90;;;;;;5039992;28;20218;-66
2023/10/01 07:34:13;;;;;;;4.33;2.90;;;16.50;99.90;;;;;;5039483;28;20207;-64
2023/10/01 07:36:43;;;;;;;6.50;3.17;;;16.50;99.90;;;;;;5033438;28;20220;-65
2023/10/01 07:39:09;;;;;;;5.13;3.23;;;16.50;99.90;;;;;;5033215;28;20211;-70
2023/10/01 07:41:38;;;;;;;5.93;3.50;;;16.50;99.90;;;;;;5030148;28;20207;-66
2023/10/01 07:44:14;;;;;;;6.33;3.70;;;16.60;99.90;;;;;;5033376;28;20199;-72
2023/10/01 07:46:40;;;;;;;5.17;3.77;;;16.50;99.90;;;;;;5058086;23;20179;-66
2023/10/01 07:49:09;;;;;;;5.10;3.43;;;16.40;99.90;;;;;;5039530;23;20236;-66
2023/10/01 07:51:38;;;;;;;5.97;3.27;;;16.40;99.90;;;;;;5011202;28;20213;-66
2023/10/01 07:54:10;;;;;;;6.53;3.70;;;16.40;99.90;;;;;;5012725;28;20199;-66
2023/10/01 07:56:39;;;;;;;7.77;3.33;;;16.50;99.90;;;;;;5007133;28;20217;-67
2023/10/01 07:59:23;;;;;;;7.07;3.10;;;16.60;99.90;;;;;;5008805;28;20219;-66
2023/10/01 08:02:07;;;;;;;5.13;2.83;;;16.60;99.90;;;;;;5010771;28;20338;-66
2023/10/01 08:04:50;;;;;;;4.37;2.70;;;16.60;99.90;;;;;;5007373;28;20531;-66
2023/10/01 08:07:18;;;;;;;7.07;3.83;;;16.60;99.90;;;;;;5003975;28;21345;-66
2023/10/01 08:09:51;;;;;;;6.30;3.80;;;16.60;99.90;;;;;;5012957;28;20203;-66
2023/10/01 08:12:28;;;;;;;8.40;3.33;;;16.60;99.90;;;;;;5012516;28;20196;-66
2023/10/01 08:15:29;;;;;;;10.13;4.10;;;16.60;99.90;;;;;;5012923;28;20266;-64
2023/10/01 08:17:56;;;;;;;7.97;3.80;;;16.70;99.90;;;;;;5010974;28;20215;-63
2023/10/01 08:20:22;;;;;;;8.30;3.77;;;16.90;99.90;;;;;;5012657;28;20723;-66
2023/10/01 08:25:32;;;;;;;10.57;3.57;;;17.20;99.90;;;;;;5005452;28;20207;-64
2023/10/01 08:30:41;;;;;;;7.30;3.00;;;17.30;99.90;;;;;;5006991;28;20218;-63
2023/10/01 08:33:19;;;;;;;6.97;3.17;;;17.20;99.90;;;;;;5011168;28;20404;-64
2023/10/01 08:35:57;;;;;;;11.40;4.00;;;17.20;99.90;;;;;;5006465;28;20254;-69
2023/10/01 08:38:26;;;;;;;11.20;3.57;;;17.20;99.90;;;;;;5006244;28;20255;-76
2023/10/01 08:40:59;;;;;;;7.53;3.73;;;17.20;99.90;;;;;;5006918;28;20199;-66
2023/10/01 08:43:31;;;;;;;6.90;3.50;;;17.30;99.90;;;;;;5016697;28;20200;-66
2023/10/01 08:46:31;;;;;;;5.07;3.20;;;17.30;99.90;;;;;;5006598;28;20234;-70
2023/10/01 08:49:18;;;;;;;10.20;3.00;;;17.30;99.90;;;;;;5011809;28;20874;-65
2023/10/01 08:51:43;;;;;;;6.17;2.70;;;17.20;99.90;;;;;;5007353;28;20216;-65
2023/10/01 08:54:14;;;;;;;4.93;3.07;;;17.30;99.90;;;;;;5010084;28;20210;-65
2023/10/01 08:56:44;;;;;;;7.10;3.63;;;17.40;99.90;;;;;;5011254;28;20215;-64
2023/10/01 08:59:23;;;;;;;6.37;3.30;;;17.40;99.90;;;;;;5011643;28;20235;-74
2023/10/01 09:01:52;;;;;;;4.60;3.00;;;17.30;99.90;;;;;;5010922;28;20642;-70
2023/10/01 09:04:44;;;;;;;4.67;3.37;;;17.20;99.90;;;;;;5006876;28;20935;-64
2023/10/01 09:07:19;;;;;;;7.37;3.77;;;17.40;99.90;;;;;;5006506;28;20608;-72
2023/10/01 09:10:06;;;;;;;11.27;3.90;;;17.30;99.90;;;;;;5005744;28;20568;-75
2023/10/01 09:12:34;;;;;;;7.67;3.70;;;17.20;99.90;;;;;;5005993;28;20241;-75
2023/10/01 09:15:02;;;;;;;5.27;3.57;;;17.00;99.90;;;;;;5004292;28;20212;-71
2023/10/01 09:17:40;;;;;;;5.80;3.33;;;17.00;99.90;;;;;;5005434;28;20220;-65
2023/10/01 09:20:17;;;;;;;5.90;3.17;;;17.30;99.90;;;;;;5006569;28;20204;-74
2023/10/01 09:22:59;;;;;;;6.60;3.60;;;17.20;99.90;;;;;;5011203;28;20203;-72
2023/10/01 09:25:30;;;;;;;6.27;3.80;;;17.30;99.90;;;;;;5009186;28;20255;-68
2023/10/01 09:27:59;;;;;;;8.07;4.20;;;17.30;99.90;;;;;;5011743;28;20577;-74
2023/10/01 09:30:33;;;;;;;7.97;3.80;;;17.40;99.90;;;;;;5010745;28;20893;-69
2023/10/01 09:33:05;;;;;;;8.83;4.20;;;17.40;99.90;;;;;;5013083;28;20205;-71
2023/10/01 09:35:59;;;;;;;6.27;3.70;;;17.50;99.90;;;;;;5009792;28;20196;-71
2023/10/01 09:38:28;;;;;;;10.50;3.60;;;17.80;99.90;;;;;;5010162;28;20306;-72
2023/10/01 09:40:58;;;;;;;8.33;4.47;;;17.80;99.90;;;;;;5010595;28;20263;-71
2023/10/01 09:43:24;;;;;;;7.13;3.57;;;17.90;99.90;;;;;;5008429;28;20210;-71
2023/10/01 09:45:51;;;;;;;6.97;4.40;;;18.00;99.90;;;;;;5008356;28;20213;-69
2023/10/01 09:48:33;;;;;;;7.77;4.87;;;18.20;99.90;;;;;;5010156;28;20668;-66
2023/10/01 09:51:31;;;;;;;5.50;3.73;;;18.20;99.90;;;;;;5014186;28;20212;-70
2023/10/01 09:54:00;;;;;;;6.43;4.43;;;18.30;99.90;;;;;;5013457;28;20223;-70
2023/10/01 09:56:46;;;;;;;7.87;3.70;;;18.30;99.90;;;;;;5014916;28;20928;-70
2023/10/01 09:59:12;;;;;;;7.40;4.50;;;18.20;99.90;;;;;;5014153;28;20222;-70
2023/10/01 10:01:40;;;;;;;7.57;4.07;;;18.10;99.90;;;;;;5010807;28;20208;-69
2023/10/01 10:04:08;;;;;;;9.63;4.73;;;18.10;99.90;;;;;;5017292;28;20400;-69
2023/10/01 10:06:34;;;;;;;7.93;4.37;;;18.20;99.90;;;;;;5010515;28;20291;-70
2023/10/01 10:09:04;;;;;;;9.27;4.77;;;18.20;99.90;;;;;;5015219;28;20196;-73
2023/10/01 10:11:30;;;;;;;5.47;3.67;;;18.30;99.90;;;;;;5015582;28;20206;-70
2023/10/01 10:13:57;;;;;;;7.27;4.73;;;18.50;99.90;;;;;;5012334;28;20205;-70
2023/10/01 10:16:32;;;;;;;12.43;4.17;;;18.60;99.90;;;;;;5014467;28;20775;-70
2023/10/01 10:19:05;;;;;;;8.30;4.43;;;18.90;99.90;;;;;;5014791;28;20247;-67
2023/10/01 10:24:47;;;;;;;9.97;5.77;;;19.20;99.90;;;;;;5011774;28;20231;-67
2023/10/01 10:27:33;;;;;;;10.93;5.47;;;19.40;99.90;;;;;;5014599;28;20331;-67
2023/10/01 10:30:05;;;;;;;6.93;5.07;;;19.30;99.90;;;;;;5012989;28;20675;-70
2023/10/01 10:32:41;;;;;;;9.37;4.67;;;19.10;99.90;;;;;;5014923;28;20834;-65
2023/10/01 10:35:12;;;;;;;6.87;4.97;;;19.20;99.90;;;;;;5015513;28;20515;-65
2023/10/01 10:37:38;;;;;;;6.60;4.73;;;19.40;99.90;;;;;;5011325;28;20235;-71
2023/10/01 10:42:58;;;;;;;7.27;3.87;;;19.20;99.90;;;;;;5009508;28;20267;-64
2023/10/01 10:45:31;;;;;;;11.03;5.27;;;19.30;99.90;;;;;;5010204;28;20204;-63
2023/10/01 10:48:03;;;;;;;7.47;5.23;;;19.40;99.90;;;;;;5013123;28;20209;-71
2023/10/01 10:50:56;;;;;;;7.47;5.27;;;19.30;99.90;;;;;;5008318;28;20214;-70
2023/10/01 10:53:39;;;;;;;8.50;5.13;;;19.30;99.90;;;;;;5006826;28;20196;-64
2023/10/01 10:56:07;;;;;;;9.50;4.67;;;19.80;99.90;;;;;;5008040;28;20202;-63
2023/10/01 10:58:40;;;;;;;8.73;5.30;;;19.80;99.90;;;;;;5005565;28;20221;-63
2023/10/01 11:01:15;;;;;;;8.57;5.40;;;19.90;99.90;;;;;;5007782;28;20193;-63
2023/10/01 11:03:45;;;;;;;6.63;4.33;;;20.10;99.90;;;;;;5014879;28;20205;-63
2023/10/01 11:06:16;;;;;;;7.73;5.17;;;20.60;99.90;;;;;;5014554;28;20655;-63
2023/10/01 11:08:53;;;;;;;6.53;5.30;;;20.80;99.30;;;;;;5033949;28;20199;-65
2023/10/01 11:11:41;;;;;;;10.83;5.20;;;21.00;99.80;;;;;;5011471;28;20202;-71
2023/10/01 11:14:15;;;;;;;10.00;5.00;;;21.10;98.40;;;;;;5010521;28;20217;-71
2023/10/01 11:16:44;;;;;;;10.57;6.70;;;20.90;99.00;;;;;;5013365;28;20953;-71
2023/10/01 11:19:21;;;;;;;9.70;5.53;;;20.30;99.50;;;;;;5010122;28;20229;-71
2023/10/01 11:21:55;;;;;;;11.13;5.77;;;20.20;99.00;;;;;;5015075;28;20194;-65
2023/10/01 11:24:35;;;;;;;9.87;4.50;;;20.40;98.70;;;;;;5008386;28;20268;-64
2023/10/01 11:27:25;;;;;;;7.33;4.50;;;20.60;98.50;;;;;;5009544;28;20194;-65
2023/10/01 11:30:16;;;;;;;6.13;4.43;;;20.80;97.70;;;;;;5010805;28;20236;-64
2023/10/01 11:32:58;;;;;;;5.10;4.47;;;20.70;98.50;;;;;;5011261;28;20202;-63
2023/10/01 11:35:31;;;;;;;5.97;3.83;;;20.80;98.30;;;;;;5012132;28;20678;-66
2023/10/01 11:38:00;;;;;;;8.43;4.23;;;21.00;98.70;;;;;;5010859;28;20294;-69
2023/10/01 11:43:32;;;;;;;7.17;4.50;;;21.30;97.30;;;;;;5007678;28;20214;-62
2023/10/01 11:46:25;;;;;;;6.80;3.97;;;21.60;96.60;;;;;;5006586;28;20218;-64
2023/10/01 11:48:59;;;;;;;5.60;3.60;;;21.70;96.80;;;;;;5008549;28;20226;-65
2023/10/01 11:51:54;;;;;;;8.03;4.17;;;21.60;97.10;;;;;;5011861;28;20217;-65
2023/10/01 11:54:22;;;;;;;6.03;3.73;;;21.20;97.40;;;;;;5011568;28;20217;-64
2023/10/01 11:57:05;;;;;;;6.10;4.27;;;21.70;96.20;;;;;;5011116;28;20515;-62
2023/10/01 11:59:42;;;;;;;8.07;4.93;;;21.90;96.00;;;;;;5009988;28;20235;-75
2023/10/01 12:02:20;;;;;;;5.83;3.63;;;21.80;95.20;;;;;;5010643;28;20224;-69
2023/10/01 12:04:59;;;;;;;6.53;4.13;;;21.50;95.30;;;;;;5006975;28;20226;-70
2023/10/01 12:07:31;;;;;;;6.20;4.17;;;21.20;95.60;;;;;;5007346;28;20209;-65
2023/10/01 12:09:58;;;;;;;6.60;4.07;;;21.20;96.20;;;;;;5011318;28;20184;-69
2023/10/01 12:12:28;;;;;;;5.93;4.00;;;21.20;96.10;;;;;;5011128;28;20560;-70
2023/10/01 12:15:33;;;;;;;6.77;3.97;;;21.00;96.50;;;;;;5011271;28;20821;-69
2023/10/01 12:17:47;;;;;;;5.00;3.70;;;20.90;96.20;;;;;;5011999;28;20223;-75
2023/10/01 12:20:29;;;;;;;6.30;3.77;;;20.70;97.40;;;;;;5009467;28;20891;-65
2023/10/01 12:26:00;;;;;;;6.60;3.70;;;20.60;96.70;;;;;;4996196;28;20226;-66
2023/10/01 12:28:29;;;;;;;6.03;3.63;;;20.40;98.10;;;;;;5012686;28;20206;-66
2023/10/01 12:30:59;;;;;;;8.13;3.57;;;20.20;98.20;;;;;;5012249;28;20195;-66
2023/10/01 12:33:38;;;;;;;5.03;3.40;;;20.30;98.00;;;;;;5012002;28;20198;-66
2023/10/01 12:36:11;;;;;;;3.67;3.37;;;20.30;97.80;;;;;;5010366;28;20193;-66
2023/10/01 12:38:37;;;;;;;5.63;3.50;;;20.30;97.60;;;;;;5007551;28;20315;-64
2023/10/01 12:41:04;;;;;;;5.77;3.13;;;20.50;97.60;;;;;;5011630;28;20202;-65
2023/10/01 12:43:36;;;;;;;5.87;3.33;;;20.60;97.90;;;;;;5013058;28;20194;-66
2023/10/01 12:46:08;;;;;;;8.27;3.40;;;20.70;97.70;;;;;;5009969;28;20198;-73
2023/10/01 12:48:44;;;;;;;7.50;3.53;;;20.80;96.40;;;;;;5010075;28;20230;-66
2023/10/01 12:51:10;;;;;;;7.73;3.73;;;20.60;97.30;;;;;;5010690;28;20260;-66
2023/10/01 12:53:49;;;;;;;6.83;3.77;;;20.40;97.40;;;;;;5005770;28;20202;-66
2023/10/01 12:56:16;;;;;;;6.20;4.00;;;20.30;97.30;;;;;;5004614;28;20200;-69
2023/10/01 12:58:53;;;;;;;5.80;3.50;;;20.20;97.40;;;;;;5006568;28;20230;-65
2023/10/01 13:01:31;;;;;;;5.13;3.57;;;20.10;97.80;;;;;;5002709;28;20826;-65
2023/10/01 13:06:48;;;;;;;9.00;3.47;;;20.20;97.50;;;;;;5011787;28;20642;-66
2023/10/01 13:12:14;;;;;;;6.23;2.73;;;20.50;96.60;;;;;;5002279;28;20285;-70
2023/10/01 13:15:14;;;;;;;4.87;3.03;;;20.50;97.30;;;;;;5009528;28;20780;-69
2023/10/01 13:17:35;;;;;;;7.17;3.30;;;20.50;97.70;;;;;;5005653;28;20241;-68
2023/10/01 13:20:18;;;;;;;6.80;3.43;;;20.00;97.70;;;;;;5007045;28;20219;-67
2023/10/01 13:22:48;;;;;;;7.13;3.13;;;19.90;98.80;;;;;;5004652;28;20203;-72
2023/10/01 13:25:18;;;;;;;8.23;3.33;;;19.80;99.30;;;;;;5008958;28;20222;-69
2023/10/01 13:27:46;;;;;;;11.67;3.37;;;19.90;98.70;;;;;;5011646;28;20270;-63
2023/10/01 13:30:20;;;;;;;3.70;3.23;;;20.10;98.00;;;;;;5012980;28;20829;-66
2023/10/01 13:33:10;;;;;;;5.27;2.80;;;20.30;98.00;;;;;;5012746;28;20275;-66
2023/10/01 13:35:36;;;;;;;8.00;3.23;;;20.60;97.50;;;;;;5014528;28;20225;-66
2023/10/01 14:08:43;;;;;;;3.23;2.53;;;20.20;97.80;;;;;;5009892;28;20586;-67
2023/10/01 14:11:10;;;;;;;7.10;3.13;;;20.00;97.60;;;;;;5013987;28;20922;-67
2023/10/01 14:13:36;;;;;;;3.67;3.07;;;20.10;97.00;;;;;;5014948;28;20209;-67
2023/10/01 14:16:11;;;;;;;4.80;2.80;;;20.10;96.70;;;;;;5012811;28;20679;-67
2023/10/01 14:18:40;;;;;;;5.40;3.30;;;20.10;96.40;;;;;;5011041;28;20224;-66
2023/10/01 14:21:12;;;;;;;5.20;3.07;;;20.00;96.10;;;;;;5013650;28;20272;-67
2023/10/01 14:23:44;;;;;;;6.73;3.20;;;20.10;96.20;;;;;;5011318;28;20233;-69
2023/10/01 14:26:10;;;;;;;7.17;3.30;;;19.90;97.10;;;;;;5007076;28;20576;-69
2023/10/01 14:28:38;;;;;;;3.37;2.77;;;19.90;96.80;;;;;;5006942;28;20210;-66